sensor_id;sensor_type;location;lat;lon;timestamp;pressure;altitude;pressure_sealevel;temperature
29423;BMP180;16399;51.686;8.684;2022-08-14T00:02:27;99689.00;;;21.50
29423;BMP180;16399;51.686;8.684;2022-08-14T00:05:30;99682.00;;;21.50
29423;BMP180;16399;51.686;8.684;2022-08-14T00:08:32;99678.00;;;21.50
29423;BMP180;16399;51.686;8.684;2022-08-14T00:11:34;99679.00;;;21.50
29423;BMP180;16399;51.686;8.684;2022-08-14T00:14:36;99682.00;;;21.40
29423;BMP180;16399;51.686;8.684;2022-08-14T00:17:39;99681.00;;;21.40
29423;BMP180;16399;51.686;8.684;2022-08-14T00:20:42;99677.00;;;21.40
29423;BMP180;16399;51.686;8.684;2022-08-14T00:23:45;99666.00;;;21.30
29423;BMP180;16399;51.686;8.684;2022-08-14T00:26:47;99667.00;;;21.30
29423;BMP180;16399;51.686;8.684;2022-08-14T00:29:49;99669.00;;;21.30
29423;BMP180;16399;51.686;8.684;2022-08-14T00:32:52;99681.00;;;21.20
29423;BMP180;16399;51.686;8.684;2022-08-14T00:35:54;99670.00;;;21.20
29423;BMP180;16399;51.686;8.684;2022-08-14T00:38:57;99669.00;;;21.10
29423;BMP180;16399;51.686;8.684;2022-08-14T00:41:59;99665.00;;;21.10
29423;BMP180;16399;51.686;8.684;2022-08-14T00:45:02;99662.00;;;21.00
29423;BMP180;16399;51.686;8.684;2022-08-14T00:48:05;99654.00;;;20.90
29423;BMP180;16399;51.686;8.684;2022-08-14T00:51:09;99647.00;;;20.90
29423;BMP180;16399;51.686;8.684;2022-08-14T00:54:12;99651.00;;;20.80
29423;BMP180;16399;51.686;8.684;2022-08-14T00:57:16;99641.00;;;20.70
29423;BMP180;16399;51.686;8.684;2022-08-14T01:00:19;99641.00;;;20.60
29423;BMP180;16399;51.686;8.684;2022-08-14T01:03:22;99644.00;;;20.60
29423;BMP180;16399;51.686;8.684;2022-08-14T01:06:26;99647.00;;;20.50
29423;BMP180;16399;51.686;8.684;2022-08-14T01:09:29;99644.00;;;20.50
29423;BMP180;16399;51.686;8.684;2022-08-14T01:12:32;99635.00;;;20.40
29423;BMP180;16399;51.686;8.684;2022-08-14T01:15:34;99629.00;;;20.40
29423;BMP180;16399;51.686;8.684;2022-08-14T01:18:37;99624.00;;;20.30
29423;BMP180;16399;51.686;8.684;2022-08-14T01:21:58;99618.00;;;20.30
29423;BMP180;16399;51.686;8.684;2022-08-14T01:25:00;99613.00;;;20.20
29423;BMP180;16399;51.686;8.684;2022-08-14T01:28:04;99610.00;;;20.20
29423;BMP180;16399;51.686;8.684;2022-08-14T01:31:14;99612.00;;;20.20
29423;BMP180;16399;51.686;8.684;2022-08-14T01:34:12;99609.00;;;20.20
29423;BMP180;16399;51.686;8.684;2022-08-14T01:37:14;99604.00;;;20.20
29423;BMP180;16399;51.686;8.684;2022-08-14T01:40:16;99599.00;;;20.20
29423;BMP180;16399;51.686;8.684;2022-08-14T01:43:21;99601.00;;;20.10
29423;BMP180;16399;51.686;8.684;2022-08-14T01:46:24;99606.00;;;20.10
29423;BMP180;16399;51.686;8.684;2022-08-14T01:49:27;99600.00;;;20.10
29423;BMP180;16399;51.686;8.684;2022-08-14T01:52:33;99606.00;;;20.10
29423;BMP180;16399;51.686;8.684;2022-08-14T01:55:37;99595.00;;;20.00
29423;BMP180;16399;51.686;8.684;2022-08-14T01:58:42;99598.00;;;20.00
29423;BMP180;16399;51.686;8.684;2022-08-14T02:01:47;99584.00;;;19.90
29423;BMP180;16399;51.686;8.684;2022-08-14T02:04:51;99577.00;;;19.90
29423;BMP180;16399;51.686;8.684;2022-08-14T02:07:54;99580.00;;;19.80
29423;BMP180;16399;51.686;8.684;2022-08-14T02:10:58;99572.00;;;19.80
29423;BMP180;16399;51.686;8.684;2022-08-14T02:14:20;99571.00;;;19.80
29423;BMP180;16399;51.686;8.684;2022-08-14T02:17:23;99560.00;;;19.80
29423;BMP180;16399;51.686;8.684;2022-08-14T02:20:28;99566.00;;;19.80
29423;BMP180;16399;51.686;8.684;2022-08-14T02:23:32;99563.00;;;19.80
29423;BMP180;16399;51.686;8.684;2022-08-14T02:26:36;99554.00;;;19.80
29423;BMP180;16399;51.686;8.684;2022-08-14T02:29:39;99564.00;;;19.80
29423;BMP180;16399;51.686;8.684;2022-08-14T02:32:42;99553.00;;;19.80
29423;BMP180;16399;51.686;8.684;2022-08-14T02:35:45;99553.00;;;19.80
29423;BMP180;16399;51.686;8.684;2022-08-14T02:38:48;99548.00;;;19.60
29423;BMP180;16399;51.686;8.684;2022-08-14T02:41:50;99556.00;;;19.50
29423;BMP180;16399;51.686;8.684;2022-08-14T02:44:53;99541.00;;;19.50
29423;BMP180;16399;51.686;8.684;2022-08-14T02:47:55;99538.00;;;19.50
29423;BMP180;16399;51.686;8.684;2022-08-14T02:50:58;99539.00;;;19.50
29423;BMP180;16399;51.686;8.684;2022-08-14T02:54:01;99541.00;;;19.50
29423;BMP180;16399;51.686;8.684;2022-08-14T02:57:03;99529.00;;;19.50
29423;BMP180;16399;51.686;8.684;2022-08-14T03:00:10;99528.00;;;19.50
29423;BMP180;16399;51.686;8.684;2022-08-14T03:03:13;99527.00;;;19.40
29423;BMP180;16399;51.686;8.684;2022-08-14T03:06:18;99530.00;;;19.30
29423;BMP180;16399;51.686;8.684;2022-08-14T03:09:25;99519.00;;;19.20
29423;BMP180;16399;51.686;8.684;2022-08-14T03:12:27;99509.00;;;19.20
29423;BMP180;16399;51.686;8.684;2022-08-14T03:15:32;99510.00;;;19.10
29423;BMP180;16399;51.686;8.684;2022-08-14T03:18:37;99510.00;;;19.20
29423;BMP180;16399;51.686;8.684;2022-08-14T03:21:45;99507.00;;;19.20
29423;BMP180;16399;51.686;8.684;2022-08-14T03:24:47;99499.00;;;19.20
29423;BMP180;16399;51.686;8.684;2022-08-14T03:27:50;99493.00;;;19.20
29423;BMP180;16399;51.686;8.684;2022-08-14T03:30:52;99500.00;;;19.20
29423;BMP180;16399;51.686;8.684;2022-08-14T03:33:55;99497.00;;;19.20
29423;BMP180;16399;51.686;8.684;2022-08-14T03:36:58;99500.00;;;19.20
29423;BMP180;16399;51.686;8.684;2022-08-14T03:40:00;99483.00;;;19.20
29423;BMP180;16399;51.686;8.684;2022-08-14T03:43:06;99482.00;;;19.20
29423;BMP180;16399;51.686;8.684;2022-08-14T03:46:10;99475.00;;;19.20
29423;BMP180;16399;51.686;8.684;2022-08-14T03:49:13;99475.00;;;19.20
29423;BMP180;16399;51.686;8.684;2022-08-14T03:52:17;99467.00;;;19.30
29423;BMP180;16399;51.686;8.684;2022-08-14T03:55:20;99466.00;;;19.30
29423;BMP180;16399;51.686;8.684;2022-08-14T03:58:22;99466.00;;;19.30
29423;BMP180;16399;51.686;8.684;2022-08-14T04:01:25;99465.00;;;19.40
29423;BMP180;16399;51.686;8.684;2022-08-14T04:04:31;99462.00;;;19.40
29423;BMP180;16399;51.686;8.684;2022-08-14T04:07:33;99456.00;;;19.30
29423;BMP180;16399;51.686;8.684;2022-08-14T04:10:35;99455.00;;;19.30
29423;BMP180;16399;51.686;8.684;2022-08-14T04:13:40;99465.00;;;19.30
29423;BMP180;16399;51.686;8.684;2022-08-14T04:16:42;99454.00;;;19.30
29423;BMP180;16399;51.686;8.684;2022-08-14T04:19:46;99458.00;;;19.30
29423;BMP180;16399;51.686;8.684;2022-08-14T04:22:49;99456.00;;;19.40
29423;BMP180;16399;51.686;8.684;2022-08-14T04:25:53;99454.00;;;19.40
29423;BMP180;16399;51.686;8.684;2022-08-14T04:28:55;99460.00;;;19.40
29423;BMP180;16399;51.686;8.684;2022-08-14T04:31:58;99458.00;;;19.40
29423;BMP180;16399;51.686;8.684;2022-08-14T04:35:01;99451.00;;;19.40
29423;BMP180;16399;51.686;8.684;2022-08-14T04:38:07;99449.00;;;19.50
29423;BMP180;16399;51.686;8.684;2022-08-14T04:41:27;99453.00;;;19.50
29423;BMP180;16399;51.686;8.684;2022-08-14T04:44:48;99448.00;;;19.50
29423;BMP180;16399;51.686;8.684;2022-08-14T04:47:51;99439.00;;;19.60
29423;BMP180;16399;51.686;8.684;2022-08-14T04:51:13;99439.00;;;19.70
29423;BMP180;16399;51.686;8.684;2022-08-14T04:54:16;99451.00;;;19.80
29423;BMP180;16399;51.686;8.684;2022-08-14T04:57:18;99458.00;;;20.00
29423;BMP180;16399;51.686;8.684;2022-08-14T05:00:21;99455.00;;;20.10
29423;BMP180;16399;51.686;8.684;2022-08-14T05:03:31;99454.00;;;20.30
29423;BMP180;16399;51.686;8.684;2022-08-14T05:06:29;99453.00;;;20.40
29423;BMP180;16399;51.686;8.684;2022-08-14T05:09:31;99453.00;;;20.60
29423;BMP180;16399;51.686;8.684;2022-08-14T05:12:33;99454.00;;;20.70
29423;BMP180;16399;51.686;8.684;2022-08-14T05:15:39;99447.00;;;20.80
29423;BMP180;16399;51.686;8.684;2022-08-14T05:18:40;99447.00;;;20.90
29423;BMP180;16399;51.686;8.684;2022-08-14T05:21:44;99451.00;;;21.00
29423;BMP180;16399;51.686;8.684;2022-08-14T05:24:47;99451.00;;;21.10
29423;BMP180;16399;51.686;8.684;2022-08-14T05:27:50;99444.00;;;21.20
29423;BMP180;16399;51.686;8.684;2022-08-14T05:30:54;99442.00;;;21.30
29423;BMP180;16399;51.686;8.684;2022-08-14T05:33:56;99439.00;;;21.50
29423;BMP180;16399;51.686;8.684;2022-08-14T05:36:59;99442.00;;;21.60
29423;BMP180;16399;51.686;8.684;2022-08-14T05:40:02;99436.00;;;21.70
29423;BMP180;16399;51.686;8.684;2022-08-14T05:43:05;99432.00;;;21.80
29423;BMP180;16399;51.686;8.684;2022-08-14T05:46:09;99427.00;;;21.80
29423;BMP180;16399;51.686;8.684;2022-08-14T05:49:13;99432.00;;;21.90
29423;BMP180;16399;51.686;8.684;2022-08-14T05:52:15;99434.00;;;21.90
29423;BMP180;16399;51.686;8.684;2022-08-14T05:55:18;99444.00;;;21.90
29423;BMP180;16399;51.686;8.684;2022-08-14T05:58:22;99439.00;;;22.00
29423;BMP180;16399;51.686;8.684;2022-08-14T06:01:24;99441.00;;;22.00
29423;BMP180;16399;51.686;8.684;2022-08-14T06:04:27;99443.00;;;22.00
29423;BMP180;16399;51.686;8.684;2022-08-14T06:07:29;99436.00;;;22.10
29423;BMP180;16399;51.686;8.684;2022-08-14T06:10:31;99446.00;;;22.10
29423;BMP180;16399;51.686;8.684;2022-08-14T06:13:39;99445.00;;;22.20
29423;BMP180;16399;51.686;8.684;2022-08-14T06:16:41;99442.00;;;22.30
29423;BMP180;16399;51.686;8.684;2022-08-14T06:19:45;99434.00;;;22.30
29423;BMP180;16399;51.686;8.684;2022-08-14T06:22:48;99432.00;;;22.40
29423;BMP180;16399;51.686;8.684;2022-08-14T06:25:50;99430.00;;;22.50
29423;BMP180;16399;51.686;8.684;2022-08-14T06:28:53;99418.00;;;22.60
29423;BMP180;16399;51.686;8.684;2022-08-14T06:31:55;99423.00;;;22.60
29423;BMP180;16399;51.686;8.684;2022-08-14T06:34:58;99428.00;;;22.70
29423;BMP180;16399;51.686;8.684;2022-08-14T06:38:01;99414.00;;;22.80
29423;BMP180;16399;51.686;8.684;2022-08-14T06:41:03;99421.00;;;22.90
29423;BMP180;16399;51.686;8.684;2022-08-14T06:44:05;99413.00;;;23.00
29423;BMP180;16399;51.686;8.684;2022-08-14T06:47:08;99414.00;;;23.10
29423;BMP180;16399;51.686;8.684;2022-08-14T06:50:12;99411.00;;;23.20
29423;BMP180;16399;51.686;8.684;2022-08-14T06:53:15;99425.00;;;23.30
29423;BMP180;16399;51.686;8.684;2022-08-14T06:56:19;99423.00;;;23.40
29423;BMP180;16399;51.686;8.684;2022-08-14T06:59:21;99427.00;;;23.60
29423;BMP180;16399;51.686;8.684;2022-08-14T07:02:23;99420.00;;;23.60
29423;BMP180;16399;51.686;8.684;2022-08-14T07:05:44;99417.00;;;23.70
29423;BMP180;16399;51.686;8.684;2022-08-14T07:08:46;99416.00;;;23.90
29423;BMP180;16399;51.686;8.684;2022-08-14T07:11:49;99409.00;;;24.00
29423;BMP180;16399;51.686;8.684;2022-08-14T07:14:52;99412.00;;;24.10
29423;BMP180;16399;51.686;8.684;2022-08-14T07:17:54;99407.00;;;24.20
29423;BMP180;16399;51.686;8.684;2022-08-14T07:20:58;99401.00;;;24.30
29423;BMP180;16399;51.686;8.684;2022-08-14T07:24:00;99400.00;;;24.30
29423;BMP180;16399;51.686;8.684;2022-08-14T07:27:03;99394.00;;;24.30
29423;BMP180;16399;51.686;8.684;2022-08-14T07:30:06;99401.00;;;24.40
29423;BMP180;16399;51.686;8.684;2022-08-14T07:33:10;99405.00;;;24.40
29423;BMP180;16399;51.686;8.684;2022-08-14T07:36:14;99393.00;;;24.50
29423;BMP180;16399;51.686;8.684;2022-08-14T07:39:17;99395.00;;;24.60
29423;BMP180;16399;51.686;8.684;2022-08-14T07:42:19;99391.00;;;24.70
29423;BMP180;16399;51.686;8.684;2022-08-14T07:45:22;99386.00;;;24.70
29423;BMP180;16399;51.686;8.684;2022-08-14T07:48:25;99383.00;;;24.80
29423;BMP180;16399;51.686;8.684;2022-08-14T07:51:27;99382.00;;;25.00
29423;BMP180;16399;51.686;8.684;2022-08-14T07:54:29;99394.00;;;25.10
29423;BMP180;16399;51.686;8.684;2022-08-14T07:57:32;99380.00;;;25.00
29423;BMP180;16399;51.686;8.684;2022-08-14T08:00:34;99385.00;;;25.10
29423;BMP180;16399;51.686;8.684;2022-08-14T08:03:37;99374.00;;;25.20
29423;BMP180;16399;51.686;8.684;2022-08-14T08:06:41;99373.00;;;25.40
29423;BMP180;16399;51.686;8.684;2022-08-14T08:09:52;99384.00;;;25.50
29423;BMP180;16399;51.686;8.684;2022-08-14T08:12:50;99382.00;;;25.60
29423;BMP180;16399;51.686;8.684;2022-08-14T08:15:55;99379.00;;;25.80
29423;BMP180;16399;51.686;8.684;2022-08-14T08:18:57;99378.00;;;26.00
29423;BMP180;16399;51.686;8.684;2022-08-14T08:21:59;99378.00;;;26.10
29423;BMP180;16399;51.686;8.684;2022-08-14T08:25:03;99378.00;;;26.30
29423;BMP180;16399;51.686;8.684;2022-08-14T08:28:09;99374.00;;;26.40
29423;BMP180;16399;51.686;8.684;2022-08-14T08:31:12;99363.00;;;26.50
29423;BMP180;16399;51.686;8.684;2022-08-14T08:34:14;99357.00;;;26.70
29423;BMP180;16399;51.686;8.684;2022-08-14T08:37:16;99358.00;;;26.90
29423;BMP180;16399;51.686;8.684;2022-08-14T08:40:32;99352.00;;;27.10
29423;BMP180;16399;51.686;8.684;2022-08-14T08:43:33;99349.00;;;27.20
29423;BMP180;16399;51.686;8.684;2022-08-14T08:46:35;99342.00;;;27.40
29423;BMP180;16399;51.686;8.684;2022-08-14T08:49:39;99342.00;;;27.60
29423;BMP180;16399;51.686;8.684;2022-08-14T08:52:48;99345.00;;;27.80
29423;BMP180;16399;51.686;8.684;2022-08-14T08:55:51;99328.00;;;28.10
29423;BMP180;16399;51.686;8.684;2022-08-14T08:58:53;99325.00;;;28.30
29423;BMP180;16399;51.686;8.684;2022-08-14T09:02:01;99318.00;;;28.40
29423;BMP180;16399;51.686;8.684;2022-08-14T09:05:04;99310.00;;;28.50
29423;BMP180;16399;51.686;8.684;2022-08-14T09:08:12;99316.00;;;28.60
29423;BMP180;16399;51.686;8.684;2022-08-14T09:11:14;99315.00;;;28.80
29423;BMP180;16399;51.686;8.684;2022-08-14T09:14:17;99326.00;;;28.90
29423;BMP180;16399;51.686;8.684;2022-08-14T09:17:19;99322.00;;;29.10
29423;BMP180;16399;51.686;8.684;2022-08-14T09:20:22;99319.00;;;29.20
29423;BMP180;16399;51.686;8.684;2022-08-14T09:23:25;99299.00;;;29.20
29423;BMP180;16399;51.686;8.684;2022-08-14T09:26:27;99306.00;;;29.30
29423;BMP180;16399;51.686;8.684;2022-08-14T09:29:29;99299.00;;;29.40
29423;BMP180;16399;51.686;8.684;2022-08-14T09:32:45;99297.00;;;29.50
29423;BMP180;16399;51.686;8.684;2022-08-14T09:45:55;99294.00;;;29.70
29423;BMP180;16399;51.686;8.684;2022-08-14T09:49:03;99289.00;;;29.60
29423;BMP180;16399;51.686;8.684;2022-08-14T09:52:11;99281.00;;;29.60
29423;BMP180;16399;51.686;8.684;2022-08-14T09:55:21;99288.00;;;29.50
29423;BMP180;16399;51.686;8.684;2022-08-14T09:58:34;99277.00;;;29.30
29423;BMP180;16399;51.686;8.684;2022-08-14T10:01:37;99276.00;;;29.30
29423;BMP180;16399;51.686;8.684;2022-08-14T10:04:36;99282.00;;;29.30
29423;BMP180;16399;51.686;8.684;2022-08-14T10:07:48;99270.00;;;29.40
29423;BMP180;16399;51.686;8.684;2022-08-14T10:10:53;99277.00;;;29.60
29423;BMP180;16399;51.686;8.684;2022-08-14T10:13:59;99279.00;;;29.80
29423;BMP180;16399;51.686;8.684;2022-08-14T10:17:05;99269.00;;;29.90
29423;BMP180;16399;51.686;8.684;2022-08-14T10:20:07;99263.00;;;30.00
29423;BMP180;16399;51.686;8.684;2022-08-14T10:23:17;99266.00;;;30.00
29423;BMP180;16399;51.686;8.684;2022-08-14T10:26:19;99258.00;;;30.10
29423;BMP180;16399;51.686;8.684;2022-08-14T10:29:34;99254.00;;;30.20
29423;BMP180;16399;51.686;8.684;2022-08-14T10:32:46;99240.00;;;30.30
29423;BMP180;16399;51.686;8.684;2022-08-14T10:35:49;99248.00;;;30.30
29423;BMP180;16399;51.686;8.684;2022-08-14T10:38:56;99237.00;;;30.50
29423;BMP180;16399;51.686;8.684;2022-08-14T10:42:14;99245.00;;;30.70
29423;BMP180;16399;51.686;8.684;2022-08-14T10:45:23;99241.00;;;30.90
29423;BMP180;16399;51.686;8.684;2022-08-14T10:48:26;99231.00;;;31.00
29423;BMP180;16399;51.686;8.684;2022-08-14T10:51:30;99231.00;;;31.20
29423;BMP180;16399;51.686;8.684;2022-08-14T10:54:40;99225.00;;;31.10
29423;BMP180;16399;51.686;8.684;2022-08-14T10:57:54;99215.00;;;30.80
29423;BMP180;16399;51.686;8.684;2022-08-14T11:00:56;99223.00;;;30.90
29423;BMP180;16399;51.686;8.684;2022-08-14T11:03:58;99218.00;;;30.90
29423;BMP180;16399;51.686;8.684;2022-08-14T11:07:01;99211.00;;;31.00
29423;BMP180;16399;51.686;8.684;2022-08-14T11:10:12;99213.00;;;31.00
29423;BMP180;16399;51.686;8.684;2022-08-14T11:13:23;99220.00;;;31.10
29423;BMP180;16399;51.686;8.684;2022-08-14T11:16:22;99206.00;;;31.30
29423;BMP180;16399;51.686;8.684;2022-08-14T11:19:24;99200.00;;;31.40
29423;BMP180;16399;51.686;8.684;2022-08-14T11:22:29;99201.00;;;31.40
29423;BMP180;16399;51.686;8.684;2022-08-14T11:25:31;99203.00;;;31.60
29423;BMP180;16399;51.686;8.684;2022-08-14T11:28:40;99200.00;;;31.50
29423;BMP180;16399;51.686;8.684;2022-08-14T11:31:44;99193.00;;;31.00
29423;BMP180;16399;51.686;8.684;2022-08-14T11:34:46;99201.00;;;30.90
29423;BMP180;16399;51.686;8.684;2022-08-14T11:37:50;99194.00;;;30.70
29423;BMP180;16399;51.686;8.684;2022-08-14T11:40:55;99177.00;;;30.40
29423;BMP180;16399;51.686;8.684;2022-08-14T11:43:57;99183.00;;;30.60
29423;BMP180;16399;51.686;8.684;2022-08-14T11:47:00;99180.00;;;30.50
29423;BMP180;16399;51.686;8.684;2022-08-14T11:50:20;99182.00;;;30.40
29423;BMP180;16399;51.686;8.684;2022-08-14T11:53:27;99161.00;;;30.10
29423;BMP180;16399;51.686;8.684;2022-08-14T11:56:34;99153.00;;;30.20
29423;BMP180;16399;51.686;8.684;2022-08-14T11:59:37;99148.00;;;30.50
29423;BMP180;16399;51.686;8.684;2022-08-14T12:02:54;99153.00;;;30.80
29423;BMP180;16399;51.686;8.684;2022-08-14T12:06:11;99137.00;;;31.10
29423;BMP180;16399;51.686;8.684;2022-08-14T12:09:31;99146.00;;;31.20
29423;BMP180;16399;51.686;8.684;2022-08-14T12:12:30;99149.00;;;31.40
29423;BMP180;16399;51.686;8.684;2022-08-14T12:15:34;99147.00;;;31.50
29423;BMP180;16399;51.686;8.684;2022-08-14T12:18:39;99131.00;;;31.50
29423;BMP180;16399;51.686;8.684;2022-08-14T12:21:48;99123.00;;;31.50
29423;BMP180;16399;51.686;8.684;2022-08-14T12:24:48;99126.00;;;31.60
29423;BMP180;16399;51.686;8.684;2022-08-14T12:27:53;99121.00;;;31.70
29423;BMP180;16399;51.686;8.684;2022-08-14T12:30:55;99118.00;;;31.80
29423;BMP180;16399;51.686;8.684;2022-08-14T12:34:00;99125.00;;;32.00
29423;BMP180;16399;51.686;8.684;2022-08-14T12:37:04;99119.00;;;32.10
29423;BMP180;16399;51.686;8.684;2022-08-14T12:40:14;99116.00;;;32.10
29423;BMP180;16399;51.686;8.684;2022-08-14T12:43:18;99109.00;;;32.20
29423;BMP180;16399;51.686;8.684;2022-08-14T12:49:35;99107.00;;;32.00
29423;BMP180;16399;51.686;8.684;2022-08-14T12:52:42;99116.00;;;32.00
29423;BMP180;16399;51.686;8.684;2022-08-14T12:55:46;99118.00;;;31.80
29423;BMP180;16399;51.686;8.684;2022-08-14T12:58:54;99115.00;;;31.50
29423;BMP180;16399;51.686;8.684;2022-08-14T13:01:56;99109.00;;;31.20
29423;BMP180;16399;51.686;8.684;2022-08-14T13:04:58;99114.00;;;31.20
29423;BMP180;16399;51.686;8.684;2022-08-14T13:08:03;99110.00;;;31.10
29423;BMP180;16399;51.686;8.684;2022-08-14T13:11:10;99106.00;;;30.90
29423;BMP180;16399;51.686;8.684;2022-08-14T13:14:13;99099.00;;;30.70
29423;BMP180;16399;51.686;8.684;2022-08-14T13:17:16;99091.00;;;30.60
29423;BMP180;16399;51.686;8.684;2022-08-14T13:20:22;99087.00;;;30.40
29423;BMP180;16399;51.686;8.684;2022-08-14T13:23:25;99083.00;;;30.40
29423;BMP180;16399;51.686;8.684;2022-08-14T13:26:29;99074.00;;;30.50
29423;BMP180;16399;51.686;8.684;2022-08-14T13:29:35;99078.00;;;30.70
29423;BMP180;16399;51.686;8.684;2022-08-14T13:32:38;99066.00;;;30.80
29423;BMP180;16399;51.686;8.684;2022-08-14T13:35:42;99062.00;;;30.90
29423;BMP180;16399;51.686;8.684;2022-08-14T13:38:47;99053.00;;;31.00
29423;BMP180;16399;51.686;8.684;2022-08-14T13:41:51;99022.00;;;31.20
29423;BMP180;16399;51.686;8.684;2022-08-14T13:44:55;99029.00;;;31.40
29423;BMP180;16399;51.686;8.684;2022-08-14T13:47:58;99037.00;;;31.50
29423;BMP180;16399;51.686;8.684;2022-08-14T13:51:02;99029.00;;;31.40
29423;BMP180;16399;51.686;8.684;2022-08-14T13:54:06;99014.00;;;31.30
29423;BMP180;16399;51.686;8.684;2022-08-14T13:57:10;99012.00;;;31.40
29423;BMP180;16399;51.686;8.684;2022-08-14T14:00:13;99010.00;;;31.40
29423;BMP180;16399;51.686;8.684;2022-08-14T14:03:23;99003.00;;;31.50
29423;BMP180;16399;51.686;8.684;2022-08-14T14:06:23;98995.00;;;31.70
29423;BMP180;16399;51.686;8.684;2022-08-14T14:09:27;98988.00;;;31.80
29423;BMP180;16399;51.686;8.684;2022-08-14T14:12:30;98998.00;;;31.80
29423;BMP180;16399;51.686;8.684;2022-08-14T14:15:32;98983.00;;;31.60
29423;BMP180;16399;51.686;8.684;2022-08-14T14:18:37;98984.00;;;31.40
29423;BMP180;16399;51.686;8.684;2022-08-14T14:21:39;98987.00;;;31.10
29423;BMP180;16399;51.686;8.684;2022-08-14T14:24:43;98985.00;;;30.90
29423;BMP180;16399;51.686;8.684;2022-08-14T14:27:48;98973.00;;;30.70
29423;BMP180;16399;51.686;8.684;2022-08-14T14:30:52;98965.00;;;30.70
29423;BMP180;16399;51.686;8.684;2022-08-14T14:34:02;98963.00;;;30.80
29423;BMP180;16399;51.686;8.684;2022-08-14T14:37:05;98959.00;;;30.90
29423;BMP180;16399;51.686;8.684;2022-08-14T14:40:10;98958.00;;;31.00
29423;BMP180;16399;51.686;8.684;2022-08-14T14:43:18;98956.00;;;31.10
29423;BMP180;16399;51.686;8.684;2022-08-14T14:46:22;98951.00;;;31.10
29423;BMP180;16399;51.686;8.684;2022-08-14T14:49:26;98952.00;;;31.10
29423;BMP180;16399;51.686;8.684;2022-08-14T14:52:32;98952.00;;;31.10
29423;BMP180;16399;51.686;8.684;2022-08-14T14:55:35;98956.00;;;31.00
29423;BMP180;16399;51.686;8.684;2022-08-14T14:58:40;98952.00;;;31.10
29423;BMP180;16399;51.686;8.684;2022-08-14T15:01:46;98949.00;;;31.00
29423;BMP180;16399;51.686;8.684;2022-08-14T15:04:49;98942.00;;;31.00
29423;BMP180;16399;51.686;8.684;2022-08-14T15:07:51;98942.00;;;31.00
29423;BMP180;16399;51.686;8.684;2022-08-14T15:10:54;98946.00;;;31.00
29423;BMP180;16399;51.686;8.684;2022-08-14T15:13:56;98943.00;;;31.00
29423;BMP180;16399;51.686;8.684;2022-08-14T15:16:59;98941.00;;;30.90
29423;BMP180;16399;51.686;8.684;2022-08-14T15:20:03;98932.00;;;30.90
29423;BMP180;16399;51.686;8.684;2022-08-14T15:23:07;98934.00;;;30.90
29423;BMP180;16399;51.686;8.684;2022-08-14T15:26:09;98928.00;;;30.90
29423;BMP180;16399;51.686;8.684;2022-08-14T15:29:12;98930.00;;;30.90
29423;BMP180;16399;51.686;8.684;2022-08-14T15:32:15;98917.00;;;30.90
29423;BMP180;16399;51.686;8.684;2022-08-14T15:35:17;98920.00;;;30.90
29423;BMP180;16399;51.686;8.684;2022-08-14T15:38:21;98928.00;;;30.90
29423;BMP180;16399;51.686;8.684;2022-08-14T15:41:23;98924.00;;;30.90
29423;BMP180;16399;51.686;8.684;2022-08-14T15:44:26;98929.00;;;31.00
29423;BMP180;16399;51.686;8.684;2022-08-14T15:47:30;98928.00;;;30.90
29423;BMP180;16399;51.686;8.684;2022-08-14T15:50:32;98933.00;;;30.90
29423;BMP180;16399;51.686;8.684;2022-08-14T15:53:34;98919.00;;;30.90
29423;BMP180;16399;51.686;8.684;2022-08-14T15:56:37;98930.00;;;30.90
29423;BMP180;16399;51.686;8.684;2022-08-14T15:59:39;98932.00;;;30.80
29423;BMP180;16399;51.686;8.684;2022-08-14T16:02:58;98920.00;;;30.70
29423;BMP180;16399;51.686;8.684;2022-08-14T16:06:02;98924.00;;;30.70
29423;BMP180;16399;51.686;8.684;2022-08-14T16:09:04;98921.00;;;30.60
29423;BMP180;16399;51.686;8.684;2022-08-14T16:12:07;98924.00;;;30.60
29423;BMP180;16399;51.686;8.684;2022-08-14T16:15:09;98922.00;;;30.60
29423;BMP180;16399;51.686;8.684;2022-08-14T16:18:14;98912.00;;;30.60
29423;BMP180;16399;51.686;8.684;2022-08-14T16:21:20;98912.00;;;30.60
29423;BMP180;16399;51.686;8.684;2022-08-14T16:24:23;98908.00;;;30.60
29423;BMP180;16399;51.686;8.684;2022-08-14T16:27:26;98914.00;;;30.60
29423;BMP180;16399;51.686;8.684;2022-08-14T16:30:29;98907.00;;;30.50
29423;BMP180;16399;51.686;8.684;2022-08-14T16:33:31;98906.00;;;30.50
29423;BMP180;16399;51.686;8.684;2022-08-14T16:36:34;98912.00;;;30.50
29423;BMP180;16399;51.686;8.684;2022-08-14T16:39:39;98911.00;;;30.40
29423;BMP180;16399;51.686;8.684;2022-08-14T16:42:42;98906.00;;;30.30
29423;BMP180;16399;51.686;8.684;2022-08-14T16:45:46;98895.00;;;30.30
29423;BMP180;16399;51.686;8.684;2022-08-14T16:48:50;98893.00;;;30.30
29423;BMP180;16399;51.686;8.684;2022-08-14T16:51:53;98891.00;;;30.20
29423;BMP180;16399;51.686;8.684;2022-08-14T16:54:56;98890.00;;;30.20
29423;BMP180;16399;51.686;8.684;2022-08-14T16:57:59;98882.00;;;30.10
29423;BMP180;16399;51.686;8.684;2022-08-14T17:01:22;98881.00;;;30.10
29423;BMP180;16399;51.686;8.684;2022-08-14T17:04:18;98884.00;;;30.00
29423;BMP180;16399;51.686;8.684;2022-08-14T17:07:21;98879.00;;;29.90
29423;BMP180;16399;51.686;8.684;2022-08-14T17:10:23;98871.00;;;29.90
29423;BMP180;16399;51.686;8.684;2022-08-14T17:13:27;98873.00;;;29.80
29423;BMP180;16399;51.686;8.684;2022-08-14T17:16:34;98871.00;;;29.70
29423;BMP180;16399;51.686;8.684;2022-08-14T17:19:37;98875.00;;;29.70
29423;BMP180;16399;51.686;8.684;2022-08-14T17:22:55;98868.00;;;29.70
29423;BMP180;16399;51.686;8.684;2022-08-14T17:25:58;98864.00;;;29.60
29423;BMP180;16399;51.686;8.684;2022-08-14T17:29:12;98861.00;;;29.50
29423;BMP180;16399;51.686;8.684;2022-08-14T17:32:14;98854.00;;;29.50
29423;BMP180;16399;51.686;8.684;2022-08-14T17:35:23;98858.00;;;29.50
29423;BMP180;16399;51.686;8.684;2022-08-14T17:38:22;98862.00;;;29.40
29423;BMP180;16399;51.686;8.684;2022-08-14T17:41:25;98859.00;;;29.40
29423;BMP180;16399;51.686;8.684;2022-08-14T17:44:28;98855.00;;;29.40
29423;BMP180;16399;51.686;8.684;2022-08-14T17:47:31;98846.00;;;29.30
29423;BMP180;16399;51.686;8.684;2022-08-14T17:50:44;98853.00;;;29.30
29423;BMP180;16399;51.686;8.684;2022-08-14T17:53:47;98840.00;;;29.30
29423;BMP180;16399;51.686;8.684;2022-08-14T17:56:50;98852.00;;;29.20